Albuquerque International Sunport Airport
KABQ : rendu visible

Aérodrome :











RETROUVEZ-NOUS SUR...

 
LOGIN :

S'inscrire | Disclaimer

   EN    FR    IT 

 









Légende :    VFR   VFR Marginal   IFR   IFR Intensif   IFR Très Intensif
Visi : 
Plafond : 
>= 8 km
>= 3000ft
5 à 8 km
1000 à 3000 ft
1500m à 5 km
500 à 1000 ft
800 à 1500m
200 à 500 ft
< 800m
< 200 ft
Symboles :   Orages  Brouillard  Fortes neiges  Fortes précipitations  Vent > 20 kt






- Altitude de l'aérodrome : 5355 ft
- Code IATA : ABQ


KABQ - Albuquerque International Sunport

DERNIER METAR :
  • 170952Z 01005KT 10SM CLR 06/M06 A3020 RMK AO2 SLP193 T00611061

METARs EXPIRÉS :
  • 170852Z 12003KT 10SM CLR 06/M06 A3019 RMK AO2 SLP195 T00561056 51008
  • 170752Z 32005KT 10SM FEW250 07/M06 A3018 RMK AO2 SLP188 T00721056

TAF KABQ
Valide du 17 à 06h jusqu'au 18 à 06h UTC


170520Z 1706/1806 36006KT P6SM SCT150 SCT250
FM172000 29006KT P6SM SKC
FM180100 33006KT P6SM SKC



MET'MAP, la Météo Aéronautique d'un coup d'oeil ! - Copyright ORBIFLY Décembre 2007 - Disclaimer

ORBIFLY MET'MAP TEAM :

Programmation & Développement : Alexandra Zaïnal
Conception & Développement : Baudouin d'Aumeries
Co-Programmation & Développement : Marc-Olivier Méhu
Soutien technique & logistique : Manuel Goepfert

Contact : metmap@orbifly.com




SOURCES & CREDITS :

   NOAA       Earth
Advisory